MMML/MXL METAR and TAF weather

Enter ICAO airport designator
Station Type Date Time Source
MMML METAR 2019/06/17 05:42 UTC NOAA

MMML 170542Z 28003KT 10SM SCT200 27/14 A2970 RMK SLP058 52020 957 8/008 AC


Station Type Date Time Source
MMML Decoded METAR 2019/06/17 05:42 UTC NOAA

Mexicali International Airport , Mexico (MMML) 32-38N 117-00W
Jun 17, 2019 - 01:42 AM EDT / 2019.06.17 0542 UTC
Wind: from the W (280 degrees) at 3 MPH (3 KT):0
Visibility: 10 mile(s):0
Sky conditions: partly cloudy
Temperature: 80 F (27 C)
Dew Point: 57 F (14 C)
Relative Humidity: 44%
Pressure (altimeter): 29.7 in. Hg (1005 hPa)
Pressure tendency: 0.06 inches (2.0 hPa) higher than three hours ago
ob: MMML 170542Z 28003KT 10SM SCT200 27/14 A2970 RMK SLP058 52020 957 8/008 AC
cycle: 5

Station Type Date Time Source
MMML TAF 2019/06/17 06:53 UTC NOAA

TAF MMML 170449Z 1706/1806 13004KT P6SM SCT200
FM171800 18010KT P6SM SCT220
BECMG 1803/1805 18008KT

Example: see airport list